sensor_id;sensor_type;location;lat;lon;timestamp;temperature;humidity
14409;DHT22;7289;50.706;4.992;2023-02-26T00:01:21;-1.00;99.90
14409;DHT22;7289;50.706;4.992;2023-02-26T00:03:51;-1.00;99.90
14409;DHT22;7289;50.706;4.992;2023-02-26T00:06:20;-1.10;99.90
14409;DHT22;7289;50.706;4.992;2023-02-26T00:08:49;-1.00;99.90
14409;DHT22;7289;50.706;4.992;2023-02-26T00:11:18;-1.20;99.90
14409;DHT22;7289;50.706;4.992;2023-02-26T00:13:46;-1.20;99.90
14409;DHT22;7289;50.706;4.992;2023-02-26T00:16:28;-1.20;99.90
14409;DHT22;7289;50.706;4.992;2023-02-26T00:18:58;-1.30;99.90
14409;DHT22;7289;50.706;4.992;2023-02-26T00:21:28;-1.30;99.90
14409;DHT22;7289;50.706;4.992;2023-02-26T00:23:56;-1.40;99.90
14409;DHT22;7289;50.706;4.992;2023-02-26T00:26:27;-1.40;99.90
14409;DHT22;7289;50.706;4.992;2023-02-26T00:28:56;-1.50;99.90
14409;DHT22;7289;50.706;4.992;2023-02-26T00:31:27;-1.60;99.90
14409;DHT22;7289;50.706;4.992;2023-02-26T00:33:56;-1.60;99.90
14409;DHT22;7289;50.706;4.992;2023-02-26T00:36:32;-1.60;99.90
14409;DHT22;7289;50.706;4.992;2023-02-26T00:39:16;-1.70;99.90
14409;DHT22;7289;50.706;4.992;2023-02-26T00:41:48;-1.70;99.90
14409;DHT22;7289;50.706;4.992;2023-02-26T00:44:17;-1.70;99.90
14409;DHT22;7289;50.706;4.992;2023-02-26T00:46:53;-1.70;99.90
14409;DHT22;7289;50.706;4.992;2023-02-26T00:49:29;-1.80;99.90
14409;DHT22;7289;50.706;4.992;2023-02-26T00:52:01;-1.70;99.90
14409;DHT22;7289;50.706;4.992;2023-02-26T00:54:31;-1.70;99.90
14409;DHT22;7289;50.706;4.992;2023-02-26T00:57:01;-1.50;99.90
14409;DHT22;7289;50.706;4.992;2023-02-26T00:59:31;-1.70;99.90
14409;DHT22;7289;50.706;4.992;2023-02-26T01:02:02;-1.80;99.90
14409;DHT22;7289;50.706;4.992;2023-02-26T01:04:31;-1.80;99.90
14409;DHT22;7289;50.706;4.992;2023-02-26T01:07:00;-1.80;99.90
14409;DHT22;7289;50.706;4.992;2023-02-26T01:09:30;-1.90;99.90
14409;DHT22;7289;50.706;4.992;2023-02-26T01:12:02;-1.90;99.90
14409;DHT22;7289;50.706;4.992;2023-02-26T01:14:31;-1.90;99.90
14409;DHT22;7289;50.706;4.992;2023-02-26T01:17:05;-1.90;99.90
14409;DHT22;7289;50.706;4.992;2023-02-26T01:19:42;-2.00;99.90
14409;DHT22;7289;50.706;4.992;2023-02-26T01:22:16;-2.10;99.90
14409;DHT22;7289;50.706;4.992;2023-02-26T01:24:47;-2.10;99.90
14409;DHT22;7289;50.706;4.992;2023-02-26T01:27:16;-2.10;99.90
14409;DHT22;7289;50.706;4.992;2023-02-26T01:29:45;-2.20;99.90
14409;DHT22;7289;50.706;4.992;2023-02-26T01:32:18;-2.10;99.90
14409;DHT22;7289;50.706;4.992;2023-02-26T01:34:55;-2.20;99.90
14409;DHT22;7289;50.706;4.992;2023-02-26T01:37:32;-2.20;99.90
14409;DHT22;7289;50.706;4.992;2023-02-26T01:43:11;-2.30;99.90
14409;DHT22;7289;50.706;4.992;2023-02-26T01:45:53;-2.30;99.90
14409;DHT22;7289;50.706;4.992;2023-02-26T01:48:35;-2.30;99.90
14409;DHT22;7289;50.706;4.992;2023-02-26T01:51:04;-2.30;99.90
14409;DHT22;7289;50.706;4.992;2023-02-26T01:53:33;-2.20;99.90
14409;DHT22;7289;50.706;4.992;2023-02-26T01:56:05;-2.20;99.90
14409;DHT22;7289;50.706;4.992;2023-02-26T01:58:37;-2.20;99.90
14409;DHT22;7289;50.706;4.992;2023-02-26T02:01:06;-2.30;99.90
14409;DHT22;7289;50.706;4.992;2023-02-26T02:03:39;-2.30;99.90
14409;DHT22;7289;50.706;4.992;2023-02-26T02:06:13;-2.10;99.90
14409;DHT22;7289;50.706;4.992;2023-02-26T02:08:42;-2.20;99.90
14409;DHT22;7289;50.706;4.992;2023-02-26T02:11:12;-2.00;99.90
14409;DHT22;7289;50.706;4.992;2023-02-26T02:13:53;-1.80;99.90
14409;DHT22;7289;50.706;4.992;2023-02-26T02:16:31;-1.80;99.90
14409;DHT22;7289;50.706;4.992;2023-02-26T02:19:12;-1.70;99.90
14409;DHT22;7289;50.706;4.992;2023-02-26T02:22:11;-1.50;99.90
14409;DHT22;7289;50.706;4.992;2023-02-26T02:24:53;-1.40;99.90
14409;DHT22;7289;50.706;4.992;2023-02-26T02:27:28;-1.30;99.90
14409;DHT22;7289;50.706;4.992;2023-02-26T02:30:13;-1.20;99.90
14409;DHT22;7289;50.706;4.992;2023-02-26T02:32:50;-1.00;99.90
14409;DHT22;7289;50.706;4.992;2023-02-26T02:35:26;-1.00;99.90
14409;DHT22;7289;50.706;4.992;2023-02-26T02:37:59;-1.00;99.90
14409;DHT22;7289;50.706;4.992;2023-02-26T02:40:33;-1.00;99.90
14409;DHT22;7289;50.706;4.992;2023-02-26T02:43:06;-1.10;99.90
14409;DHT22;7289;50.706;4.992;2023-02-26T02:45:40;-1.20;99.90
14409;DHT22;7289;50.706;4.992;2023-02-26T02:48:15;-1.10;99.90
14409;DHT22;7289;50.706;4.992;2023-02-26T02:50:49;-1.10;99.90
14409;DHT22;7289;50.706;4.992;2023-02-26T02:53:23;-1.10;99.90
14409;DHT22;7289;50.706;4.992;2023-02-26T02:55:56;-1.10;99.90
14409;DHT22;7289;50.706;4.992;2023-02-26T02:58:29;-1.20;99.90
14409;DHT22;7289;50.706;4.992;2023-02-26T03:01:01;-1.00;99.90
14409;DHT22;7289;50.706;4.992;2023-02-26T03:03:37;-1.20;99.90
14409;DHT22;7289;50.706;4.992;2023-02-26T03:06:10;-1.20;99.90
14409;DHT22;7289;50.706;4.992;2023-02-26T03:08:40;-1.20;99.90
14409;DHT22;7289;50.706;4.992;2023-02-26T03:11:09;-1.20;99.90
14409;DHT22;7289;50.706;4.992;2023-02-26T03:13:38;-1.30;99.90
14409;DHT22;7289;50.706;4.992;2023-02-26T03:16:29;-1.30;99.90
14409;DHT22;7289;50.706;4.992;2023-02-26T03:19:13;-1.40;99.90
14409;DHT22;7289;50.706;4.992;2023-02-26T03:21:47;-1.40;99.90
14409;DHT22;7289;50.706;4.992;2023-02-26T03:24:33;-1.40;99.90
14409;DHT22;7289;50.706;4.992;2023-02-26T03:27:08;-1.50;99.90
14409;DHT22;7289;50.706;4.992;2023-02-26T03:29:46;-1.50;99.90
14409;DHT22;7289;50.706;4.992;2023-02-26T03:32:23;-1.60;99.90
14409;DHT22;7289;50.706;4.992;2023-02-26T03:34:58;-1.50;99.90
14409;DHT22;7289;50.706;4.992;2023-02-26T03:37:32;-1.60;99.90
14409;DHT22;7289;50.706;4.992;2023-02-26T03:40:07;-1.60;99.90
14409;DHT22;7289;50.706;4.992;2023-02-26T03:42:41;-1.60;99.90
14409;DHT22;7289;50.706;4.992;2023-02-26T03:45:14;-1.60;99.90
14409;DHT22;7289;50.706;4.992;2023-02-26T03:47:50;-1.50;99.90
14409;DHT22;7289;50.706;4.992;2023-02-26T03:50:27;-1.60;99.90
14409;DHT22;7289;50.706;4.992;2023-02-26T03:53:22;-1.60;99.90
14409;DHT22;7289;50.706;4.992;2023-02-26T03:56:00;-1.70;99.90
14409;DHT22;7289;50.706;4.992;2023-02-26T03:58:49;-1.60;99.90
14409;DHT22;7289;50.706;4.992;2023-02-26T04:01:40;-1.70;99.90
14409;DHT22;7289;50.706;4.992;2023-02-26T04:04:14;-1.70;99.90
14409;DHT22;7289;50.706;4.992;2023-02-26T04:06:46;-1.60;99.90
14409;DHT22;7289;50.706;4.992;2023-02-26T04:09:16;-1.60;99.90
14409;DHT22;7289;50.706;4.992;2023-02-26T04:11:44;-1.60;99.90
14409;DHT22;7289;50.706;4.992;2023-02-26T04:14:13;-1.70;99.90
14409;DHT22;7289;50.706;4.992;2023-02-26T04:16:43;-1.60;99.90
14409;DHT22;7289;50.706;4.992;2023-02-26T04:19:12;-1.60;99.90
14409;DHT22;7289;50.706;4.992;2023-02-26T04:21:42;-1.60;99.90
14409;DHT22;7289;50.706;4.992;2023-02-26T04:24:14;-1.60;99.90
14409;DHT22;7289;50.706;4.992;2023-02-26T04:26:43;-1.60;99.90
14409;DHT22;7289;50.706;4.992;2023-02-26T04:29:13;-1.60;99.90
14409;DHT22;7289;50.706;4.992;2023-02-26T04:31:41;-1.70;99.90
14409;DHT22;7289;50.706;4.992;2023-02-26T04:34:10;-1.70;99.90
14409;DHT22;7289;50.706;4.992;2023-02-26T04:36:39;-1.70;99.90
14409;DHT22;7289;50.706;4.992;2023-02-26T04:39:07;-1.60;99.90
14409;DHT22;7289;50.706;4.992;2023-02-26T04:41:38;-1.60;99.90
14409;DHT22;7289;50.706;4.992;2023-02-26T04:44:07;-1.60;99.90
14409;DHT22;7289;50.706;4.992;2023-02-26T04:46:40;-1.60;99.90
14409;DHT22;7289;50.706;4.992;2023-02-26T04:49:09;-1.50;99.90
14409;DHT22;7289;50.706;4.992;2023-02-26T04:51:41;-1.50;99.90
14409;DHT22;7289;50.706;4.992;2023-02-26T04:54:12;-1.30;99.90
14409;DHT22;7289;50.706;4.992;2023-02-26T04:56:42;-1.50;99.90
14409;DHT22;7289;50.706;4.992;2023-02-26T04:59:10;-1.50;99.90
14409;DHT22;7289;50.706;4.992;2023-02-26T05:01:39;-1.50;99.90
14409;DHT22;7289;50.706;4.992;2023-02-26T05:04:08;-1.50;99.90
14409;DHT22;7289;50.706;4.992;2023-02-26T05:06:38;-1.50;99.90
14409;DHT22;7289;50.706;4.992;2023-02-26T05:09:07;-1.50;99.90
14409;DHT22;7289;50.706;4.992;2023-02-26T05:11:35;-1.60;99.90
14409;DHT22;7289;50.706;4.992;2023-02-26T05:14:06;-1.60;99.90
14409;DHT22;7289;50.706;4.992;2023-02-26T05:16:35;-1.70;99.90
14409;DHT22;7289;50.706;4.992;2023-02-26T05:19:03;-1.60;99.90
14409;DHT22;7289;50.706;4.992;2023-02-26T05:21:32;-1.60;99.90
14409;DHT22;7289;50.706;4.992;2023-02-26T05:24:00;-1.60;99.90
14409;DHT22;7289;50.706;4.992;2023-02-26T05:26:29;-1.70;99.90
14409;DHT22;7289;50.706;4.992;2023-02-26T05:28:58;-1.70;99.90
14409;DHT22;7289;50.706;4.992;2023-02-26T05:31:27;-1.80;99.90
14409;DHT22;7289;50.706;4.992;2023-02-26T05:33:56;-1.70;99.90
14409;DHT22;7289;50.706;4.992;2023-02-26T05:36:24;-1.80;99.90
14409;DHT22;7289;50.706;4.992;2023-02-26T05:38:53;-1.80;99.90
14409;DHT22;7289;50.706;4.992;2023-02-26T05:41:21;-1.80;99.90
14409;DHT22;7289;50.706;4.992;2023-02-26T05:43:49;-1.80;99.90
14409;DHT22;7289;50.706;4.992;2023-02-26T05:46:18;-1.80;99.90
14409;DHT22;7289;50.706;4.992;2023-02-26T05:48:48;-1.90;99.90
14409;DHT22;7289;50.706;4.992;2023-02-26T05:51:16;-1.80;99.90
14409;DHT22;7289;50.706;4.992;2023-02-26T05:53:45;-1.80;99.90
14409;DHT22;7289;50.706;4.992;2023-02-26T05:56:13;-1.80;99.90
14409;DHT22;7289;50.706;4.992;2023-02-26T05:58:43;-1.70;99.90
14409;DHT22;7289;50.706;4.992;2023-02-26T06:01:12;-1.90;99.90
14409;DHT22;7289;50.706;4.992;2023-02-26T06:03:41;-1.90;99.90
14409;DHT22;7289;50.706;4.992;2023-02-26T06:06:12;-2.00;99.90
14409;DHT22;7289;50.706;4.992;2023-02-26T06:08:42;-2.00;99.90
14409;DHT22;7289;50.706;4.992;2023-02-26T06:11:10;-2.00;99.90
14409;DHT22;7289;50.706;4.992;2023-02-26T06:13:39;-2.00;99.90
14409;DHT22;7289;50.706;4.992;2023-02-26T06:16:07;-2.10;99.90
14409;DHT22;7289;50.706;4.992;2023-02-26T06:18:36;-2.10;99.90
14409;DHT22;7289;50.706;4.992;2023-02-26T06:21:04;-2.20;99.90
14409;DHT22;7289;50.706;4.992;2023-02-26T06:23:34;-2.20;99.90
14409;DHT22;7289;50.706;4.992;2023-02-26T06:26:02;-2.20;99.90
14409;DHT22;7289;50.706;4.992;2023-02-26T06:28:31;-2.20;99.90
14409;DHT22;7289;50.706;4.992;2023-02-26T06:31:00;-2.20;99.90
14409;DHT22;7289;50.706;4.992;2023-02-26T06:33:28;-2.20;99.90
14409;DHT22;7289;50.706;4.992;2023-02-26T06:35:56;-2.20;99.90
14409;DHT22;7289;50.706;4.992;2023-02-26T06:38:26;-2.30;99.90
14409;DHT22;7289;50.706;4.992;2023-02-26T06:40:56;-2.30;99.90
14409;DHT22;7289;50.706;4.992;2023-02-26T06:43:24;-2.30;99.90
14409;DHT22;7289;50.706;4.992;2023-02-26T06:45:56;-2.30;99.90
14409;DHT22;7289;50.706;4.992;2023-02-26T06:48:25;-2.40;99.90
14409;DHT22;7289;50.706;4.992;2023-02-26T06:50:53;-2.30;99.90
14409;DHT22;7289;50.706;4.992;2023-02-26T06:53:22;-2.20;99.90
14409;DHT22;7289;50.706;4.992;2023-02-26T06:55:51;-2.20;99.90
14409;DHT22;7289;50.706;4.992;2023-02-26T06:58:22;-2.20;99.90
14409;DHT22;7289;50.706;4.992;2023-02-26T07:00:51;-2.20;99.90
14409;DHT22;7289;50.706;4.992;2023-02-26T07:03:20;-2.10;99.90
14409;DHT22;7289;50.706;4.992;2023-02-26T07:05:48;-2.00;99.90
14409;DHT22;7289;50.706;4.992;2023-02-26T07:08:17;-2.10;99.90
14409;DHT22;7289;50.706;4.992;2023-02-26T07:10:45;-2.00;99.90
14409;DHT22;7289;50.706;4.992;2023-02-26T07:13:16;-2.00;99.90
14409;DHT22;7289;50.706;4.992;2023-02-26T07:15:46;-2.00;99.90
14409;DHT22;7289;50.706;4.992;2023-02-26T07:18:14;-2.00;99.90
14409;DHT22;7289;50.706;4.992;2023-02-26T07:20:42;-2.00;99.90
14409;DHT22;7289;50.706;4.992;2023-02-26T07:23:11;-2.00;99.90
14409;DHT22;7289;50.706;4.992;2023-02-26T07:25:40;-2.00;99.90
14409;DHT22;7289;50.706;4.992;2023-02-26T07:28:08;-1.90;99.90
14409;DHT22;7289;50.706;4.992;2023-02-26T07:30:36;-1.80;99.90
14409;DHT22;7289;50.706;4.992;2023-02-26T07:33:07;-1.80;99.90
14409;DHT22;7289;50.706;4.992;2023-02-26T07:35:38;-1.60;99.90
14409;DHT22;7289;50.706;4.992;2023-02-26T07:38:06;-1.80;99.90
14409;DHT22;7289;50.706;4.992;2023-02-26T07:40:35;-1.80;99.90
14409;DHT22;7289;50.706;4.992;2023-02-26T07:43:03;-1.80;99.90
14409;DHT22;7289;50.706;4.992;2023-02-26T07:45:31;-1.80;99.90
14409;DHT22;7289;50.706;4.992;2023-02-26T07:48:00;-1.60;99.90
14409;DHT22;7289;50.706;4.992;2023-02-26T07:50:29;-1.60;99.90
14409;DHT22;7289;50.706;4.992;2023-02-26T07:52:59;-1.40;99.90
14409;DHT22;7289;50.706;4.992;2023-02-26T07:55:28;-1.30;99.90
14409;DHT22;7289;50.706;4.992;2023-02-26T07:57:56;-1.30;99.90
14409;DHT22;7289;50.706;4.992;2023-02-26T08:00:24;-1.20;99.90
14409;DHT22;7289;50.706;4.992;2023-02-26T08:02:53;-1.20;99.90
14409;DHT22;7289;50.706;4.992;2023-02-26T08:05:21;-1.10;99.90
14409;DHT22;7289;50.706;4.992;2023-02-26T08:07:51;-1.10;99.90
14409;DHT22;7289;50.706;4.992;2023-02-26T08:10:19;-1.00;99.90
14409;DHT22;7289;50.706;4.992;2023-02-26T08:12:47;-1.00;99.90
14409;DHT22;7289;50.706;4.992;2023-02-26T08:15:16;-1.00;99.90
14409;DHT22;7289;50.706;4.992;2023-02-26T08:17:44;-1.00;99.90
14409;DHT22;7289;50.706;4.992;2023-02-26T08:20:13;-0.80;99.90
14409;DHT22;7289;50.706;4.992;2023-02-26T08:22:42;-0.70;99.90
14409;DHT22;7289;50.706;4.992;2023-02-26T08:25:12;-0.50;99.90
14409;DHT22;7289;50.706;4.992;2023-02-26T08:27:40;-0.50;99.90
14409;DHT22;7289;50.706;4.992;2023-02-26T08:30:10;-0.40;99.90
14409;DHT22;7289;50.706;4.992;2023-02-26T08:32:38;-0.40;99.90
14409;DHT22;7289;50.706;4.992;2023-02-26T08:35:08;-0.30;99.90
14409;DHT22;7289;50.706;4.992;2023-02-26T08:37:37;-0.20;99.90
14409;DHT22;7289;50.706;4.992;2023-02-26T08:40:07;-0.10;99.90
14409;DHT22;7289;50.706;4.992;2023-02-26T08:42:37;0.00;99.90
14409;DHT22;7289;50.706;4.992;2023-02-26T08:45:07;0.00;99.90
14409;DHT22;7289;50.706;4.992;2023-02-26T08:47:36;0.10;99.90
14409;DHT22;7289;50.706;4.992;2023-02-26T08:50:21;0.10;99.90
14409;DHT22;7289;50.706;4.992;2023-02-26T08:52:50;0.30;99.90
14409;DHT22;7289;50.706;4.992;2023-02-26T08:55:19;0.40;99.90
14409;DHT22;7289;50.706;4.992;2023-02-26T08:57:48;0.50;99.90
14409;DHT22;7289;50.706;4.992;2023-02-26T09:00:17;0.70;99.90
14409;DHT22;7289;50.706;4.992;2023-02-26T09:02:46;0.60;99.90
14409;DHT22;7289;50.706;4.992;2023-02-26T09:05:15;0.60;99.90
14409;DHT22;7289;50.706;4.992;2023-02-26T09:07:44;0.70;99.90
14409;DHT22;7289;50.706;4.992;2023-02-26T09:10:13;0.80;99.90
14409;DHT22;7289;50.706;4.992;2023-02-26T09:12:42;0.70;99.90
14409;DHT22;7289;50.706;4.992;2023-02-26T09:15:12;0.70;99.90
14409;DHT22;7289;50.706;4.992;2023-02-26T09:17:41;0.80;99.90
14409;DHT22;7289;50.706;4.992;2023-02-26T09:20:11;0.90;99.90
14409;DHT22;7289;50.706;4.992;2023-02-26T09:22:39;1.00;99.90
14409;DHT22;7289;50.706;4.992;2023-02-26T09:25:09;1.10;99.90
14409;DHT22;7289;50.706;4.992;2023-02-26T09:27:37;1.30;99.90
14409;DHT22;7289;50.706;4.992;2023-02-26T09:30:06;1.40;99.90
14409;DHT22;7289;50.706;4.992;2023-02-26T09:32:37;1.30;99.90
14409;DHT22;7289;50.706;4.992;2023-02-26T09:35:06;1.30;99.90
14409;DHT22;7289;50.706;4.992;2023-02-26T09:37:34;1.40;99.90
14409;DHT22;7289;50.706;4.992;2023-02-26T09:40:03;1.60;99.90
14409;DHT22;7289;50.706;4.992;2023-02-26T09:42:45;1.60;99.90
14409;DHT22;7289;50.706;4.992;2023-02-26T09:45:24;1.60;99.90
14409;DHT22;7289;50.706;4.992;2023-02-26T09:47:55;1.90;99.90
14409;DHT22;7289;50.706;4.992;2023-02-26T09:50:30;2.20;99.90
14409;DHT22;7289;50.706;4.992;2023-02-26T09:53:03;2.50;99.90
14409;DHT22;7289;50.706;4.992;2023-02-26T09:55:35;2.90;99.90
14409;DHT22;7289;50.706;4.992;2023-02-26T09:58:12;2.80;99.90
14409;DHT22;7289;50.706;4.992;2023-02-26T10:00:51;3.00;99.90
14409;DHT22;7289;50.706;4.992;2023-02-26T10:03:27;3.20;99.90
14409;DHT22;7289;50.706;4.992;2023-02-26T10:06:19;3.20;99.90
14409;DHT22;7289;50.706;4.992;2023-02-26T10:11:46;3.40;99.90
14409;DHT22;7289;50.706;4.992;2023-02-26T10:14:20;3.40;99.80
14409;DHT22;7289;50.706;4.992;2023-02-26T10:16:53;3.30;99.80
14409;DHT22;7289;50.706;4.992;2023-02-26T10:19:28;3.30;99.90
14409;DHT22;7289;50.706;4.992;2023-02-26T10:22:02;3.80;99.90
14409;DHT22;7289;50.706;4.992;2023-02-26T10:24:42;3.70;98.60
14409;DHT22;7289;50.706;4.992;2023-02-26T10:27:13;3.60;98.60
14409;DHT22;7289;50.706;4.992;2023-02-26T10:29:47;3.10;98.70
14409;DHT22;7289;50.706;4.992;2023-02-26T10:32:24;3.00;98.80
14409;DHT22;7289;50.706;4.992;2023-02-26T10:34:56;3.00;99.20
14409;DHT22;7289;50.706;4.992;2023-02-26T10:37:36;3.00;99.90
14409;DHT22;7289;50.706;4.992;2023-02-26T10:40:12;3.30;98.20
14409;DHT22;7289;50.706;4.992;2023-02-26T10:42:45;3.10;98.80
14409;DHT22;7289;50.706;4.992;2023-02-26T10:45:30;2.90;99.00
14409;DHT22;7289;50.706;4.992;2023-02-26T10:48:12;2.90;98.60
14409;DHT22;7289;50.706;4.992;2023-02-26T10:50:50;2.90;98.90
14409;DHT22;7289;50.706;4.992;2023-02-26T10:53:19;3.20;99.10
14409;DHT22;7289;50.706;4.992;2023-02-26T10:55:51;3.10;98.50
14409;DHT22;7289;50.706;4.992;2023-02-26T10:58:24;3.00;98.50
14409;DHT22;7289;50.706;4.992;2023-02-26T11:00:54;3.20;98.70
14409;DHT22;7289;50.706;4.992;2023-02-26T11:03:29;3.40;98.30
14409;DHT22;7289;50.706;4.992;2023-02-26T11:06:03;3.90;98.60
14409;DHT22;7289;50.706;4.992;2023-02-26T11:08:35;4.10;98.20
14409;DHT22;7289;50.706;4.992;2023-02-26T11:11:06;4.30;97.80
14409;DHT22;7289;50.706;4.992;2023-02-26T11:13:37;4.40;96.80
14409;DHT22;7289;50.706;4.992;2023-02-26T11:16:10;4.40;95.10
14409;DHT22;7289;50.706;4.992;2023-02-26T11:18:43;4.00;95.20
14409;DHT22;7289;50.706;4.992;2023-02-26T11:21:18;3.80;95.80
14409;DHT22;7289;50.706;4.992;2023-02-26T11:23:46;3.70;94.50
14409;DHT22;7289;50.706;4.992;2023-02-26T11:26:17;3.90;95.00
14409;DHT22;7289;50.706;4.992;2023-02-26T11:28:47;4.00;94.10
14409;DHT22;7289;50.706;4.992;2023-02-26T11:31:19;3.80;93.70
14409;DHT22;7289;50.706;4.992;2023-02-26T11:33:49;3.90;94.30
14409;DHT22;7289;50.706;4.992;2023-02-26T11:36:20;4.00;95.40
14409;DHT22;7289;50.706;4.992;2023-02-26T11:38:53;4.30;94.00
14409;DHT22;7289;50.706;4.992;2023-02-26T11:41:23;4.30;94.00
14409;DHT22;7289;50.706;4.992;2023-02-26T11:43:59;4.20;94.60
14409;DHT22;7289;50.706;4.992;2023-02-26T11:46:28;4.30;94.60
14409;DHT22;7289;50.706;4.992;2023-02-26T11:48:58;4.30;94.50
14409;DHT22;7289;50.706;4.992;2023-02-26T11:51:29;4.50;94.00
14409;DHT22;7289;50.706;4.992;2023-02-26T11:53:58;4.60;93.90
14409;DHT22;7289;50.706;4.992;2023-02-26T11:56:31;4.50;91.80
14409;DHT22;7289;50.706;4.992;2023-02-26T11:59:05;3.90;92.20
14409;DHT22;7289;50.706;4.992;2023-02-26T12:01:35;3.50;93.40
14409;DHT22;7289;50.706;4.992;2023-02-26T12:04:04;3.40;93.30
14409;DHT22;7289;50.706;4.992;2023-02-26T12:06:36;3.40;92.90
14409;DHT22;7289;50.706;4.992;2023-02-26T12:09:07;3.50;93.40
14409;DHT22;7289;50.706;4.992;2023-02-26T12:12:02;3.80;93.40
14409;DHT22;7289;50.706;4.992;2023-02-26T12:14:50;4.20;92.20
14409;DHT22;7289;50.706;4.992;2023-02-26T12:17:30;4.50;92.10
14409;DHT22;7289;50.706;4.992;2023-02-26T12:20:11;4.60;92.20
14409;DHT22;7289;50.706;4.992;2023-02-26T12:22:49;4.50;92.30
14409;DHT22;7289;50.706;4.992;2023-02-26T12:25:31;4.80;92.40
14409;DHT22;7289;50.706;4.992;2023-02-26T12:31:34;4.80;91.30
14409;DHT22;7289;50.706;4.992;2023-02-26T12:34:18;5.00;89.80
14409;DHT22;7289;50.706;4.992;2023-02-26T12:37:02;5.00;90.40
14409;DHT22;7289;50.706;4.992;2023-02-26T12:39:48;4.80;88.80
14409;DHT22;7289;50.706;4.992;2023-02-26T12:42:27;4.80;90.90
14409;DHT22;7289;50.706;4.992;2023-02-26T12:45:23;4.90;91.80
14409;DHT22;7289;50.706;4.992;2023-02-26T12:48:10;4.90;91.50
14409;DHT22;7289;50.706;4.992;2023-02-26T12:50:54;4.80;90.00
14409;DHT22;7289;50.706;4.992;2023-02-26T12:53:39;4.80;90.10
14409;DHT22;7289;50.706;4.992;2023-02-26T12:56:33;4.80;89.60
14409;DHT22;7289;50.706;4.992;2023-02-26T12:59:18;5.10;90.80
14409;DHT22;7289;50.706;4.992;2023-02-26T13:02:02;5.10;90.60
14409;DHT22;7289;50.706;4.992;2023-02-26T13:04:55;5.40;90.90
14409;DHT22;7289;50.706;4.992;2023-02-26T13:07:55;4.90;90.50
14409;DHT22;7289;50.706;4.992;2023-02-26T13:10:36;4.70;91.30
14409;DHT22;7289;50.706;4.992;2023-02-26T13:13:24;4.50;90.00
14409;DHT22;7289;50.706;4.992;2023-02-26T13:16:01;4.10;90.30
14409;DHT22;7289;50.706;4.992;2023-02-26T13:18:40;4.20;91.10
14409;DHT22;7289;50.706;4.992;2023-02-26T13:21:14;4.30;89.70
14409;DHT22;7289;50.706;4.992;2023-02-26T13:23:48;4.20;90.00
14409;DHT22;7289;50.706;4.992;2023-02-26T13:26:18;4.30;89.20
14409;DHT22;7289;50.706;4.992;2023-02-26T13:28:52;4.30;90.00
14409;DHT22;7289;50.706;4.992;2023-02-26T13:31:25;4.40;90.90
14409;DHT22;7289;50.706;4.992;2023-02-26T13:33:58;4.40;90.00
14409;DHT22;7289;50.706;4.992;2023-02-26T13:36:29;4.40;90.60
14409;DHT22;7289;50.706;4.992;2023-02-26T13:39:13;4.40;90.10
14409;DHT22;7289;50.706;4.992;2023-02-26T13:41:54;4.60;90.60
14409;DHT22;7289;50.706;4.992;2023-02-26T13:44:31;4.70;89.50
14409;DHT22;7289;50.706;4.992;2023-02-26T13:47:19;4.60;89.10
14409;DHT22;7289;50.706;4.992;2023-02-26T13:49:59;4.50;90.00
14409;DHT22;7289;50.706;4.992;2023-02-26T13:52:32;4.50;89.10
14409;DHT22;7289;50.706;4.992;2023-02-26T13:55:03;4.70;89.70
14409;DHT22;7289;50.706;4.992;2023-02-26T13:57:41;4.70;89.60
14409;DHT22;7289;50.706;4.992;2023-02-26T14:00:26;4.80;89.50
14409;DHT22;7289;50.706;4.992;2023-02-26T14:02:55;4.90;88.80
14409;DHT22;7289;50.706;4.992;2023-02-26T14:08:51;4.90;87.40
14409;DHT22;7289;50.706;4.992;2023-02-26T14:11:55;5.00;88.70
14409;DHT22;7289;50.706;4.992;2023-02-26T14:14:34;4.90;88.10
14409;DHT22;7289;50.706;4.992;2023-02-26T14:17:28;5.00;89.90
14409;DHT22;7289;50.706;4.992;2023-02-26T14:20:17;4.80;87.10
14409;DHT22;7289;50.706;4.992;2023-02-26T14:22:49;4.40;87.90
14409;DHT22;7289;50.706;4.992;2023-02-26T14:25:28;4.20;89.20
14409;DHT22;7289;50.706;4.992;2023-02-26T14:28:18;3.90;88.70
14409;DHT22;7289;50.706;4.992;2023-02-26T14:30:50;3.70;89.30
14409;DHT22;7289;50.706;4.992;2023-02-26T14:33:28;3.80;90.40
14409;DHT22;7289;50.706;4.992;2023-02-26T14:35:57;3.80;89.20
14409;DHT22;7289;50.706;4.992;2023-02-26T14:38:28;4.10;88.50
14409;DHT22;7289;50.706;4.992;2023-02-26T14:41:02;4.30;90.40
14409;DHT22;7289;50.706;4.992;2023-02-26T14:43:35;4.50;89.70
14409;DHT22;7289;50.706;4.992;2023-02-26T14:46:04;4.70;89.80
14409;DHT22;7289;50.706;4.992;2023-02-26T14:48:36;4.70;89.40
14409;DHT22;7289;50.706;4.992;2023-02-26T14:51:14;4.50;90.80
14409;DHT22;7289;50.706;4.992;2023-02-26T14:53:56;4.20;89.50
14409;DHT22;7289;50.706;4.992;2023-02-26T14:56:46;4.10;89.30
14409;DHT22;7289;50.706;4.992;2023-02-26T14:59:45;4.10;90.60
14409;DHT22;7289;50.706;4.992;2023-02-26T15:02:25;3.90;90.00
14409;DHT22;7289;50.706;4.992;2023-02-26T15:08:17;3.80;88.30
14409;DHT22;7289;50.706;4.992;2023-02-26T15:10:59;3.80;88.90
14409;DHT22;7289;50.706;4.992;2023-02-26T15:14:02;3.90;88.80
14409;DHT22;7289;50.706;4.992;2023-02-26T15:16:41;3.90;90.10
14409;DHT22;7289;50.706;4.992;2023-02-26T15:19:25;4.10;90.10
14409;DHT22;7289;50.706;4.992;2023-02-26T15:22:12;4.00;88.60
14409;DHT22;7289;50.706;4.992;2023-02-26T15:24:43;3.90;88.80
14409;DHT22;7289;50.706;4.992;2023-02-26T15:27:15;3.90;89.20
14409;DHT22;7289;50.706;4.992;2023-02-26T15:29:46;3.80;89.90
14409;DHT22;7289;50.706;4.992;2023-02-26T15:32:21;3.80;88.60
14409;DHT22;7289;50.706;4.992;2023-02-26T15:34:57;3.80;88.50
14409;DHT22;7289;50.706;4.992;2023-02-26T15:37:28;3.90;89.90
14409;DHT22;7289;50.706;4.992;2023-02-26T15:40:03;3.90;89.10
14409;DHT22;7289;50.706;4.992;2023-02-26T15:42:35;3.90;89.20
14409;DHT22;7289;50.706;4.992;2023-02-26T15:45:10;3.90;87.60
14409;DHT22;7289;50.706;4.992;2023-02-26T15:47:40;3.70;87.80
14409;DHT22;7289;50.706;4.992;2023-02-26T15:50:13;3.70;85.80
14409;DHT22;7289;50.706;4.992;2023-02-26T15:52:52;3.60;88.60
14409;DHT22;7289;50.706;4.992;2023-02-26T15:55:23;3.70;88.30
14409;DHT22;7289;50.706;4.992;2023-02-26T15:57:52;3.70;87.10
14409;DHT22;7289;50.706;4.992;2023-02-26T16:00:22;3.60;87.90
14409;DHT22;7289;50.706;4.992;2023-02-26T16:02:52;3.50;88.10
14409;DHT22;7289;50.706;4.992;2023-02-26T16:05:25;3.40;89.20
14409;DHT22;7289;50.706;4.992;2023-02-26T16:07:53;3.50;89.60
14409;DHT22;7289;50.706;4.992;2023-02-26T16:10:31;3.50;88.40
14409;DHT22;7289;50.706;4.992;2023-02-26T16:13:00;3.30;89.30
14409;DHT22;7289;50.706;4.992;2023-02-26T16:15:31;3.30;90.30
14409;DHT22;7289;50.706;4.992;2023-02-26T16:18:02;3.30;89.00
14409;DHT22;7289;50.706;4.992;2023-02-26T16:20:37;3.30;88.90
14409;DHT22;7289;50.706;4.992;2023-02-26T16:23:10;3.20;89.70
14409;DHT22;7289;50.706;4.992;2023-02-26T16:25:48;3.20;90.40
14409;DHT22;7289;50.706;4.992;2023-02-26T16:28:19;3.10;90.70
14409;DHT22;7289;50.706;4.992;2023-02-26T16:30:53;3.00;90.50
14409;DHT22;7289;50.706;4.992;2023-02-26T16:33:23;3.00;90.60
14409;DHT22;7289;50.706;4.992;2023-02-26T16:35:54;3.00;90.80
14409;DHT22;7289;50.706;4.992;2023-02-26T16:38:25;2.90;91.20
14409;DHT22;7289;50.706;4.992;2023-02-26T16:40:58;2.90;91.20
14409;DHT22;7289;50.706;4.992;2023-02-26T16:43:34;2.80;90.60
14409;DHT22;7289;50.706;4.992;2023-02-26T16:46:05;2.80;90.70
14409;DHT22;7289;50.706;4.992;2023-02-26T16:48:38;2.80;91.10